Pagrindinis puslapis
METAR-TAF:

METAR-TAF

Oro uostai :

Isfahanas, Iranas

platuma: 32-28N, ilguma: 051-43E, Aukštis: 1590 m

Dabartinis oras

Ataskaita buvo paskelbta 33 minutes, ne 12:30 UTC
Vėjas 4 kt iš Pietų/Pietryčių
Temperatūra 17°C
Drėgmė 20%
Slėgis 1018 hPa
Matomumas: 8000 m

METAR: OIFM 281230Z 16004KT 8000 NSC 17/M06 Q1018 A3007

Laikas: 16:33 (13:03 UTC)

Prognozė

Ataskaita buvo paskelbta 1 valandą ir 13 minutes, ne 11:50 UTC
Prognozė galioja nuo 28 metu 12 UTC su 29 metu 18 UTC
Vėjas 8 kt iš Vakarų/Šiaurės Vakarų
Matomumas: 8000 m
Mažai debesys ne aukštis 4000 ft
Laikinai
nuo 28 metu 14 UTC su 28 metu 20 UTC
Vėjas 10 kt iš Šiaurės/Šiaurės Rytų
Mažai debesys ne aukštis 3500 ft, aukštai iškilę kamuoliniai debesys.
Išsisklaidę debesys ne aukštis 10000 ft
Laikinai
nuo 28 metu 01 UTC su 28 metu 07 UTC
Matomumas: 4000 m
migla

TAF: OIFM 281150Z 2812/2918 30008KT 8000 FEW040 TEMPO 2814/2820 03010KT FEW035TCU SCT100 TEMPO 2801/2807 4000 HZ

Orai ataskaitas ir orų prognozės (METAR, TAF).

turimą stotys yra geltonos ir raudonos taškus žemėlapyje.

Perkelti pele per norėdami pamatyti stoties vardą.

Tada spustelėkite, norėdami matyti oro stebėjimo ir prognozės.

Norėdami pakeisti žemėlapį: spustelėkite ant žalios mygtukų su juodo kryžiaus žemyn,; žalią mygtuką su brūkšneliu, jei norite nutolinti; arba žalių rodyklių gretimoms žemėlapius.


METAR-TAF: